Terminal Aerodrome Forecast
Issued by NWS Indianapolis, IN

Home | Current Version | Previous Version | Text Only | Print | Product List | Glossary On
Versions: 1 2 3 4 5 6 7 8 9 10 11 12 13 14 15 16 17 18 19 20 21 22 23 24 25
881
FTUS43 KIND 281410 AAC
TAFIND
TAF AMD
KIND 281410Z 2814/2918 05005KT P6SM -SHRA VCTS SCT035CB BKN080
      TEMPO 2814/2816 3SM -TSRA BKN035CB
     FM281800 31005KT P6SM VCSH SCT020 OVC100
     FM282100 31009KT P6SM VCSH BKN030
     FM290600 33005KT 5SM BR BKN015
     FM291100 01007KT P6SM BKN008=

USA.gov is the U.S. government's official web portal to all federal, state and local government web resources and services.